Aviation Digital Data Service (ADDS)

Output produced by METARs form (1444 UTC 11 December 2018)
found at http://www.aviationweather.gov/metar/data/
 
KPIT 111401Z 21009KT 8SM SCT012 M06/M08 A3013 RMK AO2 T10561078
KPIT 111351Z 21007KT 8SM BKN012 M06/M08 A3013 RMK AO2 SLP229 T10561078
KPIT 111128Z 1112/1218 21008KT P6SM OVC015 
     FM111400 22010G18KT P6SM SCT025 
     FM120100 24008KT P6SM BKN025 
     FM120900 25005KT P6SM BKN015 
     FM121400 18005KT P6SM BKN150
       
KAGC 111408Z 20009KT 9SM SCT012 M06/M08 A3013 RMK AO2 T10561078
KAGC 111353Z 20010KT 9SM BKN012 M06/M08 A3014 RMK AO2 SLP228 T10561078
KAGC 111128Z 1112/1212 20008KT P6SM OVC015 
     FM111400 22010G18KT P6SM SCT025 
     FM120100 23008KT P6SM BKN025 
     FM120900 22005KT P6SM BKN015
       
KBVI 111347Z 20008KT 7SM SCT009 M05/M07 A3012
KBVI 111308Z 1113/1212 23010G18KT P6SM OVC015 
     FM111500 21007KT P6SM SCT015 
     FM112300 23008KT P6SM BKN025 
     FM120800 22003KT P6SM BKN015
       
KFKL 111356Z AUTO 21009KT 9SM BKN011 M06/M08 A3007 RMK AO2 SLP206 T10611078 FZRANO
KFKL 111440Z 1115/1212 24006KT P6SM BKN010 
     TEMPO 1115/1117 SCT010 
     FM111900 24008KT P6SM OVC025 
     FM120300 25008KT P6SM OVC015
       
KYNG 111351Z 21010KT 3SM BR FEW250 M05/M08 A3008 RMK AO2 SLP203 T10501078
KYNG 111444Z 1115/1212 21010KT 6SM HZ SCT012 
     FM112000 23010KT P6SM BKN015 
     FM120100 26006KT P6SM OVC025 
     FM120500 VRB04KT P6SM OVC015